Time;durP1;ratioP1;P1;durP2;ratioP2;P2;SDS_P1;SDS_P2;PMS_P1;PMS_P2;Temp;Humidity;BMP_temperature;BMP_pressure;BME280_temperature;BME280_humidity;BME280_pressure;Samples;Min_cycle;Max_cycle;Signal;HPM_P1;HPM_P2
2023/03/30 00:02:22;;;;;;;1.35;0.90;;;15.50;99.90;;;;;;5093437;28;20027;-69
2023/03/30 00:04:51;;;;;;;2.42;1.42;;;15.60;99.90;;;;;;5093305;28;20115;-69
2023/03/30 00:07:18;;;;;;;0.65;0.47;;;15.70;99.90;;;;;;5092939;28;20357;-69
2023/03/30 00:09:45;;;;;;;1.20;0.40;;;15.80;99.90;;;;;;5093255;28;20126;-70
2023/03/30 00:12:14;;;;;;;4.40;1.13;;;15.90;99.90;;;;;;5093336;28;20024;-69
2023/03/30 00:14:41;;;;;;;2.95;0.65;;;16.00;99.90;;;;;;5093181;28;20055;-69
2023/03/30 00:17:08;;;;;;;0.55;0.30;;;16.00;99.90;;;;;;5093438;28;20031;-69
2023/03/30 00:19:37;;;;;;;2.38;1.10;;;16.00;99.90;;;;;;5092939;28;20031;-69
2023/03/30 00:22:04;;;;;;;0.63;0.52;;;16.00;99.90;;;;;;5092931;28;20464;-70
2023/03/30 00:24:30;;;;;;;0.80;0.70;;;16.00;99.90;;;;;;5093015;28;20022;-70
2023/03/30 00:26:56;;;;;;;10.95;0.80;;;15.90;99.90;;;;;;5091642;28;20024;-70
2023/03/30 00:29:21;;;;;;;0.50;0.40;;;15.90;99.90;;;;;;5085614;28;20467;-71
2023/03/30 00:31:48;;;;;;;0.57;0.52;;;15.90;99.90;;;;;;5093061;28;20024;-70
2023/03/30 00:34:13;;;;;;;5.72;0.43;;;15.80;99.90;;;;;;5092919;28;20057;-70
2023/03/30 00:36:39;;;;;;;5.43;1.02;;;15.80;99.90;;;;;;5092635;28;20031;-70
2023/03/30 00:39:05;;;;;;;0.57;0.50;;;15.70;99.90;;;;;;5092779;28;20119;-70
2023/03/30 00:41:32;;;;;;;1.27;0.68;;;15.60;99.90;;;;;;5092770;28;20028;-70
2023/03/30 00:43:58;;;;;;;0.88;0.88;;;15.60;99.90;;;;;;5091768;28;20032;-70
2023/03/30 00:46:25;;;;;;;0.22;0.20;;;15.50;99.90;;;;;;5092504;28;20035;-70
2023/03/30 00:48:51;;;;;;;2.25;0.68;;;15.60;99.90;;;;;;5091926;28;20459;-70
2023/03/30 00:51:18;;;;;;;0.20;0.20;;;15.50;99.90;;;;;;5092358;28;20035;-70
2023/03/30 00:53:52;;;;;;;0.75;0.40;;;15.60;99.90;;;;;;5093105;28;20020;-70
2023/03/30 00:56:25;;;;;;;2.78;1.10;;;15.50;99.90;;;;;;5091443;28;20472;-70
2023/03/30 00:58:51;;;;;;;6.78;1.55;;;15.50;99.90;;;;;;5092812;28;20035;-70
2023/03/30 01:01:24;;;;;;;0.88;0.70;;;15.40;99.90;;;;;;5091274;28;20070;-69
2023/03/30 01:03:52;;;;;;;3.45;1.25;;;15.40;99.90;;;;;;5092527;28;20069;-69
2023/03/30 01:06:23;;;;;;;3.70;1.17;;;15.30;99.90;;;;;;5091147;28;20027;-70
2023/03/30 01:08:50;;;;;;;1.17;0.55;;;15.30;99.90;;;;;;5092896;28;20125;-70
2023/03/30 01:11:16;;;;;;;2.58;0.30;;;15.20;99.90;;;;;;5091226;28;20625;-69
2023/03/30 01:13:46;;;;;;;0.47;0.47;;;15.20;99.90;;;;;;5092348;28;20123;-70
2023/03/30 01:16:21;;;;;;;0.45;0.45;;;15.20;99.90;;;;;;5092673;28;20024;-69
2023/03/30 01:19:03;;;;;;;0.35;0.35;;;15.10;99.90;;;;;;5090974;28;20035;-70
2023/03/30 01:21:50;;;;;;;2.38;1.23;;;15.00;99.90;;;;;;5091139;28;20468;-70
2023/03/30 01:24:53;;;;;;;2.28;0.55;;;14.80;99.90;;;;;;5091001;28;20028;-69
2023/03/30 01:27:58;;;;;;;6.90;0.32;;;14.70;99.90;;;;;;5090897;28;20089;-70
2023/03/30 01:30:46;;;;;;;0.15;0.10;;;14.70;99.90;;;;;;5074240;28;20051;-69
2023/03/30 01:33:33;;;;;;;3.42;1.45;;;14.90;99.90;;;;;;5092093;28;20060;-70
2023/03/30 01:36:16;;;;;;;0.00;0.00;;;14.90;99.90;;;;;;5090778;28;20039;-69
2023/03/30 01:39:00;;;;;;;0.13;0.13;;;14.80;99.90;;;;;;5092335;28;20024;-69
2023/03/30 01:41:44;;;;;;;0.10;0.10;;;14.80;99.90;;;;;;5093845;28;20039;-70
2023/03/30 01:44:25;;;;;;;0.20;0.20;;;14.70;99.90;;;;;;5096029;28;20422;-70
2023/03/30 01:47:04;;;;;;;0.75;0.75;;;14.80;99.90;;;;;;5096117;28;20119;-69
2023/03/30 01:49:58;;;;;;;0.55;0.50;;;14.60;99.90;;;;;;5095589;28;20027;-70
2023/03/30 01:52:27;;;;;;;7.10;1.63;;;14.50;99.90;;;;;;5094557;28;20119;-70
2023/03/30 01:55:07;;;;;;;0.20;0.20;;;14.50;99.90;;;;;;5094653;28;20028;-70
2023/03/30 01:57:37;;;;;;;0.00;0.00;;;14.50;99.90;;;;;;5094507;28;20492;-70
2023/03/30 02:00:18;;;;;;;0.32;0.30;;;14.70;99.90;;;;;;5094648;28;20494;-70
2023/03/30 02:02:54;;;;;;;0.75;0.40;;;14.60;99.90;;;;;;5094411;28;20278;-70
2023/03/30 02:05:22;;;;;;;2.08;0.90;;;14.70;99.90;;;;;;5067459;28;20020;-70
2023/03/30 02:08:00;;;;;;;2.30;1.30;;;14.60;99.90;;;;;;5094294;28;20063;-69
2023/03/30 02:10:30;;;;;;;0.30;0.30;;;14.50;99.90;;;;;;5095562;28;20040;-70
2023/03/30 02:12:58;;;;;;;17.45;1.25;;;14.60;99.90;;;;;;5092660;28;20024;-70
2023/03/30 02:15:29;;;;;;;0.10;0.10;;;14.50;99.90;;;;;;5094362;28;20101;-70
2023/03/30 02:17:55;;;;;;;0.65;0.43;;;14.60;99.90;;;;;;5093741;28;20028;-69
2023/03/30 02:20:21;;;;;;;1.85;0.70;;;14.60;99.90;;;;;;5094117;28;20020;-70
2023/03/30 02:22:48;;;;;;;0.20;0.20;;;14.50;99.90;;;;;;5094203;28;20055;-70
2023/03/30 02:25:14;;;;;;;2.00;1.10;;;14.50;99.90;;;;;;5094039;28;20036;-70
2023/03/30 02:27:41;;;;;;;2.55;1.17;;;14.50;99.90;;;;;;5095306;28;20498;-70
2023/03/30 02:30:08;;;;;;;5.00;0.22;;;14.50;99.90;;;;;;5093910;28;20028;-70
2023/03/30 02:32:46;;;;;;;0.20;0.20;;;14.80;99.90;;;;;;5093592;28;20024;-70
2023/03/30 02:35:46;;;;;;;2.25;0.43;;;14.80;99.90;;;;;;5095352;28;20031;-69
2023/03/30 02:38:33;;;;;;;4.47;0.32;;;14.80;99.90;;;;;;5093597;28;20559;-70
2023/03/30 02:41:35;;;;;;;2.92;1.55;;;14.80;99.90;;;;;;5093843;28;20029;-70
2023/03/30 02:44:14;;;;;;;6.03;1.10;;;14.90;99.90;;;;;;5093801;28;20060;-69
2023/03/30 02:46:59;;;;;;;10.88;0.93;;;14.80;99.90;;;;;;5093507;28;20042;-69
2023/03/30 02:49:44;;;;;;;0.13;0.13;;;14.60;99.90;;;;;;5093347;28;20032;-70
2023/03/30 02:52:38;;;;;;;0.60;0.57;;;14.60;99.90;;;;;;5093289;28;20433;-69
2023/03/30 02:55:14;;;;;;;0.55;0.47;;;14.60;99.90;;;;;;5089492;28;20056;-69
2023/03/30 02:58:30;;;;;;;1.92;0.77;;;14.60;99.90;;;;;;5086074;28;20081;-70
2023/03/30 03:01:25;;;;;;;4.15;1.17;;;14.60;99.90;;;;;;5093313;28;20032;-70
2023/03/30 03:04:06;;;;;;;1.33;1.20;;;14.50;99.90;;;;;;5093173;28;20089;-70
2023/03/30 03:06:41;;;;;;;0.38;0.38;;;14.30;99.90;;;;;;5093288;28;20035;-69
2023/03/30 03:09:08;;;;;;;1.08;0.57;;;14.20;99.90;;;;;;5093158;28;20472;-69
2023/03/30 03:11:34;;;;;;;4.72;0.95;;;14.20;99.90;;;;;;5093038;28;20476;-69
2023/03/30 03:14:00;;;;;;;0.75;0.68;;;13.90;99.90;;;;;;5094371;28;20016;-69
2023/03/30 03:16:28;;;;;;;5.05;1.77;;;13.80;99.90;;;;;;5092956;28;20081;-69
2023/03/30 03:19:09;;;;;;;7.30;2.13;;;13.70;99.90;;;;;;5093030;28;20586;-70
2023/03/30 03:21:35;;;;;;;0.20;0.20;;;13.70;99.90;;;;;;5093013;28;20485;-72
2023/03/30 03:24:03;;;;;;;0.85;0.63;;;13.70;99.90;;;;;;5092785;28;20024;-70
2023/03/30 03:26:49;;;;;;;2.90;1.05;;;13.60;99.90;;;;;;5094048;28;20040;-71
2023/03/30 03:29:15;;;;;;;0.10;0.10;;;13.60;99.90;;;;;;5092522;28;20071;-69
2023/03/30 03:31:41;;;;;;;0.20;0.20;;;13.70;99.90;;;;;;5093948;28;20060;-69
2023/03/30 03:34:07;;;;;;;0.10;0.10;;;13.80;99.90;;;;;;5094062;28;20058;-69
2023/03/30 03:36:53;;;;;;;0.10;0.10;;;13.70;99.90;;;;;;5092841;28;20065;-69
2023/03/30 03:39:20;;;;;;;2.00;0.73;;;13.90;99.90;;;;;;5092265;28;20024;-69
2023/03/30 03:41:55;;;;;;;2.08;1.00;;;13.80;99.90;;;;;;5092727;28;20036;-69
2023/03/30 03:44:21;;;;;;;0.20;0.20;;;13.60;99.90;;;;;;5092471;28;20020;-69
2023/03/30 03:46:47;;;;;;;0.40;0.22;;;13.50;99.90;;;;;;5092696;28;20495;-69
2023/03/30 03:49:14;;;;;;;0.22;0.22;;;13.60;99.90;;;;;;5092313;28;20069;-69
2023/03/30 03:51:40;;;;;;;4.82;1.58;;;13.80;99.90;;;;;;5092211;28;20320;-70
2023/03/30 03:54:05;;;;;;;3.33;0.57;;;13.70;99.90;;;;;;5093664;28;20027;-69
2023/03/30 03:56:32;;;;;;;2.08;1.20;;;13.60;99.90;;;;;;5092317;28;20020;-69
2023/03/30 03:58:57;;;;;;;0.28;0.28;;;13.70;99.90;;;;;;5093094;28;20024;-70
2023/03/30 04:01:23;;;;;;;0.10;0.10;;;13.70;99.90;;;;;;5092280;28;20544;-69
2023/03/30 04:03:49;;;;;;;1.67;0.52;;;13.70;99.90;;;;;;5092750;28;20036;-69
2023/03/30 04:06:15;;;;;;;0.52;0.52;;;13.80;99.90;;;;;;5093166;28;20092;-70
2023/03/30 04:08:40;;;;;;;0.10;0.10;;;13.80;99.90;;;;;;5093545;28;20069;-69
2023/03/30 04:11:42;;;;;;;0.28;0.28;;;13.80;99.90;;;;;;5070540;28;20626;-69
2023/03/30 04:14:22;;;;;;;4.50;1.08;;;13.90;99.90;;;;;;5087002;28;20185;-69
2023/03/30 04:17:06;;;;;;;0.35;0.30;;;13.90;99.90;;;;;;5093567;28;20039;-69
2023/03/30 04:19:55;;;;;;;0.25;0.25;;;13.90;99.90;;;;;;5089248;28;20036;-69
2023/03/30 04:22:48;;;;;;;0.80;0.80;;;13.80;99.90;;;;;;5091903;28;20039;-70
2023/03/30 04:25:30;;;;;;;0.85;0.70;;;13.50;99.90;;;;;;5091501;28;20051;-69
2023/03/30 04:28:20;;;;;;;1.45;0.65;;;13.40;99.90;;;;;;5092713;28;20032;-69
2023/03/30 04:31:18;;;;;;;8.90;1.27;;;13.20;99.90;;;;;;5087304;28;20492;-69
2023/03/30 04:34:05;;;;;;;1.40;0.65;;;12.90;99.90;;;;;;5091733;28;20507;-69
2023/03/30 04:36:56;;;;;;;0.10;0.10;;;12.80;99.90;;;;;;5091656;28;20028;-71
2023/03/30 04:39:22;;;;;;;0.22;0.22;;;12.70;99.90;;;;;;5092493;28;20394;-71
2023/03/30 04:42:07;;;;;;;0.63;0.55;;;12.70;99.90;;;;;;5092922;28;20074;-71
2023/03/30 04:44:51;;;;;;;4.43;0.55;;;12.60;99.90;;;;;;5092921;28;20067;-71
2023/03/30 04:47:34;;;;;;;7.35;0.85;;;12.50;99.90;;;;;;5091057;28;20081;-71
2023/03/30 04:50:32;;;;;;;1.52;0.55;;;12.50;99.90;;;;;;5092426;28;20059;-71
2023/03/30 04:53:21;;;;;;;5.88;0.75;;;12.30;99.90;;;;;;5091298;28;20097;-71
2023/03/30 04:55:49;;;;;;;0.30;0.30;;;12.30;99.90;;;;;;5092780;28;20043;-71
2023/03/30 04:58:30;;;;;;;1.98;1.08;;;12.40;99.90;;;;;;5091236;28;20048;-71
2023/03/30 05:01:19;;;;;;;0.88;0.80;;;12.40;99.90;;;;;;5089092;28;20037;-71
2023/03/30 05:03:54;;;;;;;1.08;1.02;;;12.30;99.90;;;;;;5092758;28;20056;-71
2023/03/30 05:06:52;;;;;;;4.72;2.03;;;12.40;99.90;;;;;;5080173;28;20040;-71
2023/03/30 05:09:44;;;;;;;1.58;0.75;;;12.40;99.90;;;;;;5083405;28;20135;-71
2023/03/30 05:12:33;;;;;;;4.68;1.90;;;12.50;99.90;;;;;;5091952;28;20516;-70
2023/03/30 05:15:22;;;;;;;4.10;1.92;;;12.40;99.90;;;;;;5090817;28;20036;-70
2023/03/30 05:18:11;;;;;;;5.05;1.40;;;12.30;99.90;;;;;;5076981;28;20437;-70
2023/03/30 05:20:58;;;;;;;2.40;1.65;;;12.20;99.90;;;;;;5069436;28;20040;-70
2023/03/30 05:23:47;;;;;;;4.25;0.98;;;12.00;99.90;;;;;;5093242;28;20032;-70
2023/03/30 05:26:31;;;;;;;9.70;1.60;;;11.90;99.90;;;;;;5096493;28;20039;-70
2023/03/30 05:29:16;;;;;;;7.68;2.28;;;11.90;99.90;;;;;;5095191;28;20622;-70
2023/03/30 05:32:21;;;;;;;12.07;1.73;;;11.90;99.90;;;;;;5053241;28;20037;-69
2023/03/30 05:35:16;;;;;;;1.85;0.75;;;11.90;99.90;;;;;;5053526;28;20079;-70
2023/03/30 05:38:11;;;;;;;3.97;0.90;;;11.90;99.90;;;;;;5055710;28;20075;-71
2023/03/30 05:41:05;;;;;;;1.75;0.75;;;11.90;99.90;;;;;;5094432;28;20036;-70
2023/03/30 05:43:50;;;;;;;2.47;0.70;;;11.80;99.90;;;;;;5096195;28;20089;-70
2023/03/30 05:46:33;;;;;;;6.00;1.33;;;11.70;99.90;;;;;;5094690;28;20481;-70
2023/03/30 05:49:22;;;;;;;1.67;0.90;;;11.70;99.90;;;;;;5085156;28;20040;-71
2023/03/30 05:51:57;;;;;;;1.88;0.57;;;11.70;99.90;;;;;;5092450;28;20032;-70
2023/03/30 05:55:01;;;;;;;0.95;0.90;;;11.80;99.90;;;;;;5082086;28;20020;-70
2023/03/30 05:58:05;;;;;;;0.17;0.17;;;11.80;99.90;;;;;;5069524;28;20036;-71
2023/03/30 06:00:44;;;;;;;10.98;1.95;;;12.00;99.90;;;;;;5073497;28;20120;-71
2023/03/30 06:03:20;;;;;;;1.52;0.63;;;11.90;99.90;;;;;;5077601;28;20021;-71
2023/03/30 06:05:46;;;;;;;4.00;1.75;;;12.00;99.90;;;;;;5067785;28;20493;-71
2023/03/30 06:08:12;;;;;;;2.40;0.75;;;12.00;99.90;;;;;;5073239;28;20529;-71
2023/03/30 06:10:39;;;;;;;10.65;1.75;;;12.30;99.90;;;;;;5075158;28;20048;-71
2023/03/30 06:13:08;;;;;;;3.17;0.50;;;12.20;99.90;;;;;;5072927;28;20028;-70
2023/03/30 06:15:44;;;;;;;2.55;0.80;;;12.30;99.90;;;;;;5085065;28;20396;-71
2023/03/30 06:18:14;;;;;;;3.13;1.25;;;12.30;99.90;;;;;;5062504;28;20028;-71
2023/03/30 06:20:49;;;;;;;2.85;1.35;;;12.30;99.90;;;;;;5058880;28;20025;-70
2023/03/30 06:23:15;;;;;;;2.35;0.98;;;12.40;99.90;;;;;;5074346;28;20386;-70
2023/03/30 06:25:45;;;;;;;9.55;1.35;;;12.50;99.90;;;;;;5069618;28;20032;-71
2023/03/30 06:28:11;;;;;;;0.32;0.32;;;12.60;99.90;;;;;;5061652;28;20021;-71
2023/03/30 06:30:38;;;;;;;8.43;2.08;;;12.60;99.90;;;;;;5077195;28;20499;-69
2023/03/30 06:33:06;;;;;;;8.88;1.27;;;12.50;99.90;;;;;;5073414;28;20115;-70
2023/03/30 06:35:49;;;;;;;7.22;1.52;;;12.60;99.90;;;;;;5077047;28;20044;-71
2023/03/30 06:38:20;;;;;;;16.73;3.03;;;12.60;99.90;;;;;;5079896;28;20024;-70
2023/03/30 06:40:46;;;;;;;10.65;1.52;;;12.60;99.90;;;;;;5092907;28;20040;-70
2023/03/30 06:43:20;;;;;;;9.48;2.22;;;12.50;99.90;;;;;;5092965;28;20023;-71
2023/03/30 06:45:58;;;;;;;2.47;1.25;;;12.60;99.90;;;;;;5087289;28;20020;-71
2023/03/30 06:48:25;;;;;;;7.15;2.53;;;12.70;99.90;;;;;;5092177;28;20054;-70
2023/03/30 06:51:12;;;;;;;12.02;2.45;;;12.70;99.90;;;;;;5093859;28;20044;-71
2023/03/30 06:53:38;;;;;;;13.40;2.65;;;12.70;99.90;;;;;;5084346;28;20099;-70
2023/03/30 06:56:04;;;;;;;10.07;2.50;;;12.80;99.90;;;;;;5094135;28;20161;-71
2023/03/30 06:58:34;;;;;;;3.75;1.05;;;12.70;99.90;;;;;;5072443;28;20495;-71
2023/03/30 07:01:14;;;;;;;2.00;1.10;;;12.70;99.90;;;;;;5092944;28;20020;-70
2023/03/30 07:04:01;;;;;;;1.52;0.52;;;12.80;99.90;;;;;;5070434;28;20024;-70
2023/03/30 07:06:45;;;;;;;0.10;0.10;;;12.80;99.90;;;;;;5092126;28;20767;-71
2023/03/30 07:09:11;;;;;;;13.10;2.88;;;12.80;99.90;;;;;;5092464;28;20024;-70
2023/03/30 07:11:37;;;;;;;4.35;1.23;;;12.90;99.90;;;;;;5090419;28;20093;-71
2023/03/30 07:14:04;;;;;;;6.20;2.15;;;12.90;99.90;;;;;;5077661;28;20032;-70
2023/03/30 07:16:31;;;;;;;14.57;3.15;;;12.80;99.90;;;;;;5087716;28;20016;-72
2023/03/30 07:18:57;;;;;;;11.13;2.45;;;12.80;99.90;;;;;;5079438;28;20074;-70
2023/03/30 07:21:22;;;;;;;7.22;1.00;;;12.80;99.90;;;;;;5077870;28;20016;-72
2023/03/30 07:23:49;;;;;;;4.32;1.42;;;12.80;99.90;;;;;;5073594;28;20028;-72
2023/03/30 07:26:27;;;;;;;13.60;1.33;;;12.80;99.90;;;;;;5080660;28;20016;-73
2023/03/30 07:28:58;;;;;;;20.05;3.17;;;12.80;99.90;;;;;;5071468;28;20024;-72
2023/03/30 07:31:25;;;;;;;10.82;1.85;;;12.80;99.90;;;;;;5078661;28;20070;-71
2023/03/30 07:33:51;;;;;;;3.85;1.08;;;12.70;99.90;;;;;;5076248;28;20023;-72
2023/03/30 07:36:21;;;;;;;16.73;3.22;;;12.70;99.90;;;;;;5076269;28;20024;-71
2023/03/30 07:38:47;;;;;;;9.68;2.00;;;12.70;99.90;;;;;;5043583;28;20033;-71
2023/03/30 07:41:15;;;;;;;7.28;1.98;;;12.80;99.90;;;;;;5080521;28;20029;-71
2023/03/30 07:43:42;;;;;;;6.75;1.52;;;12.90;99.90;;;;;;5082178;28;20024;-71
2023/03/30 07:46:11;;;;;;;7.38;1.75;;;13.00;99.90;;;;;;5079555;28;20025;-71
2023/03/30 07:48:39;;;;;;;5.60;1.60;;;13.00;99.90;;;;;;5071334;28;20016;-72
2023/03/30 07:51:08;;;;;;;5.82;1.70;;;13.00;99.90;;;;;;5082765;28;20055;-72
2023/03/30 07:53:39;;;;;;;14.38;3.33;;;13.20;99.90;;;;;;5077014;28;20023;-70
2023/03/30 07:56:14;;;;;;;11.90;2.17;;;13.30;99.90;;;;;;5078408;28;20032;-70
2023/03/30 07:58:44;;;;;;;6.07;3.40;;;13.40;99.90;;;;;;5072990;28;20042;-70
2023/03/30 08:01:12;;;;;;;13.02;2.83;;;13.50;99.90;;;;;;5072036;28;20036;-72
2023/03/30 08:04:16;;;;;;;12.02;1.95;;;13.30;99.90;;;;;;5072400;28;20152;-70
2023/03/30 08:06:43;;;;;;;3.75;0.98;;;13.30;99.90;;;;;;5074766;28;20024;-70
2023/03/30 08:09:09;;;;;;;13.40;2.70;;;13.30;99.90;;;;;;5076220;28;20759;-71
2023/03/30 08:11:35;;;;;;;8.13;2.08;;;13.30;99.90;;;;;;5069036;28;20694;-72
2023/03/30 08:14:04;;;;;;;2.53;1.88;;;13.40;99.90;;;;;;5075291;28;20103;-72
2023/03/30 08:16:31;;;;;;;24.77;3.50;;;13.50;99.90;;;;;;5083015;28;20072;-70
2023/03/30 08:18:57;;;;;;;14.90;2.00;;;13.50;99.90;;;;;;5076874;28;20028;-69
2023/03/30 08:21:24;;;;;;;19.67;3.03;;;13.70;99.90;;;;;;5073404;28;20036;-70
2023/03/30 08:23:57;;;;;;;19.25;2.70;;;13.50;99.90;;;;;;5077415;28;20148;-70
2023/03/30 08:26:29;;;;;;;14.45;3.17;;;13.30;99.90;;;;;;5085583;28;20039;-72
2023/03/30 08:28:55;;;;;;;;;;;13.40;99.90;;;;;;5077455;28;20034;-71
2023/03/30 08:31:21;;;;;;;18.88;1.67;;;13.30;99.90;;;;;;5074594;28;19917;-72
2023/03/30 08:33:47;;;;;;;14.15;2.65;;;13.30;99.90;;;;;;5074396;28;20031;-71
2023/03/30 08:36:13;;;;;;;20.10;3.10;;;13.30;99.90;;;;;;5079272;28;20149;-72
2023/03/30 08:38:40;;;;;;;4.97;1.70;;;13.40;99.90;;;;;;5091811;28;20064;-71
2023/03/30 08:41:40;;;;;;;16.67;2.08;;;13.40;99.90;;;;;;5092094;28;20028;-71
2023/03/30 08:44:09;;;;;;;5.53;1.55;;;13.30;99.90;;;;;;5078533;28;20035;-71
2023/03/30 08:46:34;;;;;;;10.63;2.35;;;13.30;99.90;;;;;;5091708;28;20020;-72
2023/03/30 08:49:05;;;;;;;17.98;2.58;;;13.50;99.90;;;;;;5091647;28;20408;-71
2023/03/30 08:51:32;;;;;;;11.43;2.90;;;13.30;99.90;;;;;;5080139;28;20490;-71
2023/03/30 08:54:02;;;;;;;9.38;2.45;;;13.60;99.90;;;;;;5075955;28;20171;-71
2023/03/30 08:56:35;;;;;;;19.88;3.80;;;13.60;99.90;;;;;;5074327;28;20681;-72
2023/03/30 08:59:17;;;;;;;6.53;1.77;;;13.70;99.90;;;;;;5074217;28;20033;-71
2023/03/30 09:01:52;;;;;;;10.05;2.47;;;13.70;99.90;;;;;;5074807;28;20026;-71
2023/03/30 09:05:00;;;;;;;13.65;3.75;;;13.70;99.90;;;;;;5066907;28;20031;-71
2023/03/30 09:07:51;;;;;;;4.13;1.33;;;13.70;99.90;;;;;;5072456;28;20041;-71
2023/03/30 09:10:18;;;;;;;6.40;1.65;;;14.00;99.90;;;;;;5075664;28;20025;-71
2023/03/30 09:12:57;;;;;;;23.08;2.33;;;14.10;99.90;;;;;;5071780;28;20039;-71
2023/03/30 09:15:38;;;;;;;9.75;1.67;;;14.00;99.90;;;;;;5076001;28;20021;-72
2023/03/30 09:18:18;;;;;;;14.43;3.50;;;14.30;99.90;;;;;;5069977;28;20444;-71
2023/03/30 09:20:46;;;;;;;17.35;2.78;;;14.30;99.90;;;;;;5070137;28;20282;-70
2023/03/30 09:23:15;;;;;;;9.90;2.58;;;14.40;99.90;;;;;;5073606;28;20041;-71
2023/03/30 09:25:50;;;;;;;12.95;2.75;;;14.40;99.90;;;;;;5080297;28;20028;-72
2023/03/30 09:28:40;;;;;;;14.20;2.55;;;14.70;99.90;;;;;;5065366;28;20048;-72
2023/03/30 09:31:15;;;;;;;14.32;2.88;;;14.50;99.90;;;;;;5070671;28;20047;-71
2023/03/30 09:33:51;;;;;;;15.68;3.33;;;14.40;99.90;;;;;;5075706;28;20381;-71
2023/03/30 09:36:42;;;;;;;24.33;3.75;;;14.30;99.90;;;;;;5078343;28;20021;-70
2023/03/30 09:39:19;;;;;;;22.13;3.60;;;14.40;99.90;;;;;;5091214;28;20040;-71
2023/03/30 09:42:00;;;;;;;9.52;1.85;;;14.50;99.90;;;;;;5091335;28;20109;-71
2023/03/30 09:44:37;;;;;;;7.50;2.38;;;14.50;99.90;;;;;;5091339;28;20115;-72
2023/03/30 09:47:20;;;;;;;23.20;1.48;;;14.40;99.90;;;;;;5091172;28;20059;-71
2023/03/30 09:49:46;;;;;;;7.25;1.15;;;14.60;99.90;;;;;;5091121;28;20040;-71
2023/03/30 09:52:21;;;;;;;17.35;2.65;;;14.50;99.90;;;;;;5087674;28;20158;-70
2023/03/30 09:54:47;;;;;;;10.38;1.73;;;14.70;99.90;;;;;;5088396;28;20028;-71
2023/03/30 09:57:31;;;;;;;10.18;2.10;;;14.90;99.90;;;;;;5091351;28;20042;-71
2023/03/30 09:59:59;;;;;;;13.90;3.13;;;14.90;99.90;;;;;;5086502;28;20085;-71
2023/03/30 10:02:29;;;;;;;2.92;1.55;;;14.80;99.90;;;;;;5092535;28;20098;-71
2023/03/30 10:04:59;;;;;;;2.30;1.10;;;14.90;99.90;;;;;;5093672;28;20480;-71
2023/03/30 10:07:26;;;;;;;13.80;1.25;;;14.90;99.90;;;;;;5094844;28;20046;-71
2023/03/30 10:09:53;;;;;;;3.03;0.88;;;15.00;99.90;;;;;;5094692;28;20117;-70
2023/03/30 10:12:19;;;;;;;14.68;3.30;;;14.70;99.90;;;;;;5094659;28;20027;-70
2023/03/30 10:14:45;;;;;;;8.25;1.25;;;14.50;99.90;;;;;;5094418;28;20100;-71
2023/03/30 10:17:20;;;;;;;7.65;2.13;;;14.30;99.90;;;;;;5094400;28;20058;-71
2023/03/30 10:19:45;;;;;;;7.05;0.77;;;13.90;99.90;;;;;;5094736;28;20031;-71
2023/03/30 10:22:16;;;;;;;8.05;2.05;;;13.60;99.90;;;;;;5091162;28;20040;-71
2023/03/30 10:24:54;;;;;;;24.08;3.45;;;13.80;99.90;;;;;;5086023;28;20032;-71
2023/03/30 10:27:32;;;;;;;12.30;2.33;;;14.10;99.90;;;;;;5094267;28;20503;-71
2023/03/30 10:30:08;;;;;;;14.35;2.90;;;14.10;99.90;;;;;;5055093;28;20025;-70
2023/03/30 10:32:35;;;;;;;13.20;2.90;;;14.50;99.90;;;;;;5072979;28;20028;-72
2023/03/30 10:35:07;;;;;;;11.13;2.80;;;14.80;99.90;;;;;;5094320;28;20028;-71
2023/03/30 10:37:43;;;;;;;8.07;1.88;;;14.80;99.90;;;;;;5080490;28;20451;-71
2023/03/30 10:40:32;;;;;;;7.53;2.15;;;15.20;99.90;;;;;;5070675;28;20028;-71
2023/03/30 10:43:00;;;;;;;9.43;1.95;;;14.80;99.90;;;;;;5067967;28;20016;-71
2023/03/30 10:45:47;;;;;;;2.92;1.45;;;14.60;99.90;;;;;;5074115;28;20024;-70
2023/03/30 10:48:18;;;;;;;13.15;1.92;;;14.70;99.90;;;;;;5064485;28;20036;-72
2023/03/30 10:51:09;;;;;;;9.38;2.22;;;14.70;99.90;;;;;;5074411;28;20477;-70
2023/03/30 10:53:57;;;;;;;6.75;0.93;;;14.50;99.90;;;;;;5074384;28;20032;-71
2023/03/30 10:56:32;;;;;;;9.18;2.05;;;14.20;99.90;;;;;;5068818;28;20033;-71
2023/03/30 10:59:26;;;;;;;2.08;1.05;;;14.30;99.90;;;;;;5074126;28;20033;-70
2023/03/30 11:02:16;;;;;;;11.75;0.98;;;14.90;99.90;;;;;;5074052;28;20053;-70
2023/03/30 11:05:08;;;;;;;25.33;1.25;;;15.20;99.90;;;;;;5074048;28;20104;-70
2023/03/30 11:07:45;;;;;;;11.45;1.67;;;15.40;99.90;;;;;;5059239;28;20047;-73
2023/03/30 11:10:30;;;;;;;19.15;2.65;;;15.30;99.90;;;;;;5073475;28;20047;-73
2023/03/30 11:13:05;;;;;;;16.70;2.42;;;15.40;99.90;;;;;;5069770;28;20029;-73
2023/03/30 11:15:52;;;;;;;8.18;2.42;;;15.20;99.90;;;;;;5074067;28;20029;-73
2023/03/30 11:18:24;;;;;;;14.15;3.22;;;14.90;99.90;;;;;;5068352;28;20103;-72
2023/03/30 11:21:03;;;;;;;6.35;1.50;;;15.00;99.90;;;;;;5074079;28;20032;-73
2023/03/30 11:23:51;;;;;;;1.80;0.73;;;15.00;99.90;;;;;;5041223;28;20052;-72
2023/03/30 11:26:51;;;;;;;22.73;3.35;;;15.20;99.90;;;;;;5073654;28;20054;-72
2023/03/30 11:29:45;;;;;;;10.40;2.72;;;15.10;99.90;;;;;;5066196;28;20036;-73
2023/03/30 11:32:33;;;;;;;3.10;0.90;;;15.40;99.90;;;;;;5070770;28;20036;-72
2023/03/30 11:35:10;;;;;;;20.65;3.20;;;15.90;99.90;;;;;;5072266;28;20032;-72
2023/03/30 11:37:57;;;;;;;7.22;1.65;;;16.00;99.90;;;;;;5088190;28;20036;-72
2023/03/30 11:40:42;;;;;;;15.55;2.42;;;16.10;99.90;;;;;;5093720;28;20036;-72
2023/03/30 11:43:19;;;;;;;25.05;3.80;;;15.90;99.90;;;;;;5093468;28;20027;-72
2023/03/30 11:46:03;;;;;;;7.95;2.72;;;15.70;99.90;;;;;;5093686;28;20020;-72
2023/03/30 11:48:46;;;;;;;19.52;3.08;;;15.50;99.90;;;;;;5078258;28;20039;-72
2023/03/30 11:51:30;;;;;;;19.92;2.45;;;15.40;99.90;;;;;;5092380;28;20036;-72
2023/03/30 11:54:03;;;;;;;15.15;2.70;;;15.60;99.90;;;;;;5092407;28;20039;-72
2023/03/30 11:56:47;;;;;;;21.30;3.80;;;15.80;99.90;;;;;;5093375;28;20468;-72
2023/03/30 11:59:19;;;;;;;25.00;1.33;;;16.00;99.90;;;;;;5093343;28;20032;-72
2023/03/30 12:02:06;;;;;;;21.13;2.17;;;16.30;99.90;;;;;;5093456;28;20024;-72
2023/03/30 12:04:51;;;;;;;19.88;2.72;;;16.20;99.90;;;;;;5093430;28;20039;-72
2023/03/30 12:07:44;;;;;;;16.00;2.30;;;16.10;99.90;;;;;;5092028;28;20039;-72
2023/03/30 12:10:39;;;;;;;19.77;3.17;;;15.70;99.90;;;;;;5093145;28;20469;-72
2023/03/30 12:13:12;;;;;;;17.30;2.35;;;15.70;99.90;;;;;;5086277;28;20044;-72
2023/03/30 12:15:48;;;;;;;4.20;1.15;;;15.40;99.90;;;;;;5093183;28;20110;-72
2023/03/30 12:18:29;;;;;;;15.52;2.53;;;15.30;99.90;;;;;;5093150;28;20088;-72
2023/03/30 12:21:04;;;;;;;3.90;2.17;;;15.30;99.90;;;;;;5093256;28;20063;-72
2023/03/30 12:23:48;;;;;;;10.30;1.42;;;16.30;99.90;;;;;;5091846;28;20447;-73
2023/03/30 12:26:33;;;;;;;20.40;2.42;;;16.60;99.90;;;;;;5092231;28;20085;-71
2023/03/30 12:29:10;;;;;;;7.30;1.75;;;17.20;99.90;;;;;;5093163;28;20444;-72
2023/03/30 12:31:57;;;;;;;18.50;2.45;;;17.00;99.90;;;;;;5091667;28;20082;-72
2023/03/30 12:34:27;;;;;;;20.98;3.10;;;16.80;99.90;;;;;;5092998;28;20161;-72
2023/03/30 12:37:03;;;;;;;7.93;1.48;;;16.90;99.90;;;;;;5092835;28;20073;-72
2023/03/30 12:39:30;;;;;;;13.13;1.98;;;16.50;99.90;;;;;;5092493;28;20031;-72
2023/03/30 12:42:07;;;;;;;13.23;3.75;;;16.10;99.90;;;;;;5092569;28;20081;-72
2023/03/30 12:44:45;;;;;;;21.90;2.88;;;16.10;99.90;;;;;;5092787;28;20056;-72
2023/03/30 12:47:32;;;;;;;5.18;1.75;;;16.10;99.90;;;;;;5092761;28;20036;-72
2023/03/30 12:50:19;;;;;;;13.02;2.38;;;16.30;99.90;;;;;;5092462;28;20442;-72
2023/03/30 12:53:11;;;;;;;9.38;2.17;;;16.30;99.90;;;;;;5092577;28;20090;-72
2023/03/30 12:55:52;;;;;;;11.90;2.13;;;15.60;99.90;;;;;;5072919;28;20044;-72
2023/03/30 12:58:40;;;;;;;5.30;1.45;;;15.50;99.90;;;;;;5087808;28;20044;-72
2023/03/30 13:01:28;;;;;;;7.57;1.40;;;15.60;99.90;;;;;;5092685;28;20043;-72
2023/03/30 13:03:59;;;;;;;11.40;1.75;;;16.50;99.90;;;;;;5091621;28;20070;-73
2023/03/30 13:06:34;;;;;;;22.80;3.05;;;16.90;99.90;;;;;;5092483;28;20049;-72
2023/03/30 13:09:22;;;;;;;11.55;3.53;;;17.50;99.90;;;;;;5091181;28;20400;-73
2023/03/30 13:11:48;;;;;;;7.88;1.45;;;17.50;99.90;;;;;;5090886;28;20048;-72
2023/03/30 13:14:29;;;;;;;5.15;2.33;;;17.30;99.90;;;;;;5092746;28;20028;-72
2023/03/30 13:16:55;;;;;;;12.98;1.77;;;17.80;99.90;;;;;;5092567;28;20130;-72
2023/03/30 13:19:29;;;;;;;12.10;1.50;;;18.00;99.90;;;;;;5092449;28;20512;-73
2023/03/30 13:22:10;;;;;;;4.47;0.85;;;17.80;99.90;;;;;;5091206;28;20294;-72
2023/03/30 13:24:51;;;;;;;6.37;2.63;;;18.30;99.90;;;;;;5092360;28;20055;-72
2023/03/30 13:27:17;;;;;;;6.50;0.68;;;18.20;99.90;;;;;;5090840;28;20107;-72
2023/03/30 13:29:53;;;;;;;3.63;1.08;;;17.50;99.90;;;;;;5092446;28;20108;-72
2023/03/30 13:32:26;;;;;;;7.07;2.38;;;17.20;99.90;;;;;;5091225;28;20036;-72